sensor_id;sensor_type;location;lat;lon;timestamp;temperature;humidity
46758;DHT22;32509;47.750;-3.396;2023-08-07T00:00:36;17.10;99.90
46758;DHT22;32509;47.750;-3.396;2023-08-07T00:03:02;17.10;99.90
46758;DHT22;32509;47.750;-3.396;2023-08-07T00:05:28;17.10;99.90
46758;DHT22;32509;47.750;-3.396;2023-08-07T00:07:55;17.10;99.90
46758;DHT22;32509;47.750;-3.396;2023-08-07T00:10:21;17.10;99.90
46758;DHT22;32509;47.750;-3.396;2023-08-07T00:12:47;17.00;99.90
46758;DHT22;32509;47.750;-3.396;2023-08-07T00:15:12;17.00;99.90
46758;DHT22;32509;47.750;-3.396;2023-08-07T00:17:38;17.10;99.90
46758;DHT22;32509;47.750;-3.396;2023-08-07T00:20:04;17.00;99.90
46758;DHT22;32509;47.750;-3.396;2023-08-07T00:22:30;17.00;99.90
46758;DHT22;32509;47.750;-3.396;2023-08-07T00:24:56;17.00;99.90
46758;DHT22;32509;47.750;-3.396;2023-08-07T00:27:22;17.00;99.90
46758;DHT22;32509;47.750;-3.396;2023-08-07T00:29:48;17.00;99.90
46758;DHT22;32509;47.750;-3.396;2023-08-07T00:32:14;17.10;99.90
46758;DHT22;32509;47.750;-3.396;2023-08-07T00:34:39;17.10;99.90
46758;DHT22;32509;47.750;-3.396;2023-08-07T00:37:05;17.00;99.90
46758;DHT22;32509;47.750;-3.396;2023-08-07T00:39:31;17.00;99.90
46758;DHT22;32509;47.750;-3.396;2023-08-07T00:41:57;17.00;99.90
46758;DHT22;32509;47.750;-3.396;2023-08-07T00:44:22;17.00;99.90
46758;DHT22;32509;47.750;-3.396;2023-08-07T00:46:49;17.00;99.90
46758;DHT22;32509;47.750;-3.396;2023-08-07T00:49:16;16.90;99.90
46758;DHT22;32509;47.750;-3.396;2023-08-07T00:51:44;17.00;99.90
46758;DHT22;32509;47.750;-3.396;2023-08-07T00:54:12;17.00;99.90
46758;DHT22;32509;47.750;-3.396;2023-08-07T00:56:40;16.90;99.90
46758;DHT22;32509;47.750;-3.396;2023-08-07T00:59:06;16.90;99.90
46758;DHT22;32509;47.750;-3.396;2023-08-07T01:01:32;16.90;99.90
46758;DHT22;32509;47.750;-3.396;2023-08-07T01:03:57;16.90;99.90
46758;DHT22;32509;47.750;-3.396;2023-08-07T01:06:23;16.90;99.90
46758;DHT22;32509;47.750;-3.396;2023-08-07T01:08:49;16.90;99.90
46758;DHT22;32509;47.750;-3.396;2023-08-07T01:15:06;16.90;99.90
46758;DHT22;32509;47.750;-3.396;2023-08-07T01:17:18;16.80;99.90
46758;DHT22;32509;47.750;-3.396;2023-08-07T01:19:45;16.80;99.90
46758;DHT22;32509;47.750;-3.396;2023-08-07T01:22:17;16.90;99.90
46758;DHT22;32509;47.750;-3.396;2023-08-07T01:24:45;16.90;99.90
46758;DHT22;32509;47.750;-3.396;2023-08-07T01:30:17;16.80;99.90
46758;DHT22;32509;47.750;-3.396;2023-08-07T01:35:44;16.90;99.90
46758;DHT22;32509;47.750;-3.396;2023-08-07T01:38:11;16.80;99.90
46758;DHT22;32509;47.750;-3.396;2023-08-07T01:40:42;16.80;99.90
46758;DHT22;32509;47.750;-3.396;2023-08-07T01:43:08;16.80;99.90
46758;DHT22;32509;47.750;-3.396;2023-08-07T01:45:35;16.80;99.90
46758;DHT22;32509;47.750;-3.396;2023-08-07T01:48:01;16.80;99.90
46758;DHT22;32509;47.750;-3.396;2023-08-07T01:50:27;16.70;99.90
46758;DHT22;32509;47.750;-3.396;2023-08-07T01:52:53;16.70;99.90
46758;DHT22;32509;47.750;-3.396;2023-08-07T01:55:20;16.70;99.90
46758;DHT22;32509;47.750;-3.396;2023-08-07T01:57:46;16.70;99.90
46758;DHT22;32509;47.750;-3.396;2023-08-07T02:00:12;16.70;99.90
46758;DHT22;32509;47.750;-3.396;2023-08-07T02:02:38;16.70;99.90
46758;DHT22;32509;47.750;-3.396;2023-08-07T02:05:04;16.70;99.90
46758;DHT22;32509;47.750;-3.396;2023-08-07T02:07:30;16.70;99.90
46758;DHT22;32509;47.750;-3.396;2023-08-07T02:09:56;16.70;99.90
46758;DHT22;32509;47.750;-3.396;2023-08-07T02:12:22;16.70;99.90
46758;DHT22;32509;47.750;-3.396;2023-08-07T02:14:48;16.60;99.90
46758;DHT22;32509;47.750;-3.396;2023-08-07T02:17:14;16.60;99.90
46758;DHT22;32509;47.750;-3.396;2023-08-07T02:19:40;16.60;99.90
46758;DHT22;32509;47.750;-3.396;2023-08-07T02:22:05;16.60;99.90
46758;DHT22;32509;47.750;-3.396;2023-08-07T02:24:31;16.60;99.90
46758;DHT22;32509;47.750;-3.396;2023-08-07T02:26:57;16.60;99.90
46758;DHT22;32509;47.750;-3.396;2023-08-07T02:29:23;16.60;99.90
46758;DHT22;32509;47.750;-3.396;2023-08-07T02:31:49;16.50;99.90
46758;DHT22;32509;47.750;-3.396;2023-08-07T02:34:15;16.60;99.90
46758;DHT22;32509;47.750;-3.396;2023-08-07T02:36:40;16.50;99.90
46758;DHT22;32509;47.750;-3.396;2023-08-07T02:39:07;16.50;99.90
46758;DHT22;32509;47.750;-3.396;2023-08-07T02:41:33;16.50;99.90
46758;DHT22;32509;47.750;-3.396;2023-08-07T02:43:58;16.50;99.90
46758;DHT22;32509;47.750;-3.396;2023-08-07T02:46:24;16.50;99.90
46758;DHT22;32509;47.750;-3.396;2023-08-07T02:48:50;16.50;99.90
46758;DHT22;32509;47.750;-3.396;2023-08-07T02:51:15;16.50;99.90
46758;DHT22;32509;47.750;-3.396;2023-08-07T02:53:41;16.40;99.90
46758;DHT22;32509;47.750;-3.396;2023-08-07T02:56:07;16.40;99.90
46758;DHT22;32509;47.750;-3.396;2023-08-07T02:58:33;16.50;99.90
46758;DHT22;32509;47.750;-3.396;2023-08-07T03:01:05;16.50;99.90
46758;DHT22;32509;47.750;-3.396;2023-08-07T03:03:34;16.50;99.90
46758;DHT22;32509;47.750;-3.396;2023-08-07T03:06:00;16.50;99.90
46758;DHT22;32509;47.750;-3.396;2023-08-07T03:08:26;16.50;99.90
46758;DHT22;32509;47.750;-3.396;2023-08-07T03:10:54;16.50;99.90
46758;DHT22;32509;47.750;-3.396;2023-08-07T03:13:21;16.60;99.90
46758;DHT22;32509;47.750;-3.396;2023-08-07T03:15:47;16.60;99.90
46758;DHT22;32509;47.750;-3.396;2023-08-07T03:18:15;16.60;99.90
46758;DHT22;32509;47.750;-3.396;2023-08-07T03:20:44;16.60;99.90
46758;DHT22;32509;47.750;-3.396;2023-08-07T03:23:10;16.60;99.90
46758;DHT22;32509;47.750;-3.396;2023-08-07T03:25:36;16.60;99.90
46758;DHT22;32509;47.750;-3.396;2023-08-07T03:28:02;16.60;99.90
46758;DHT22;32509;47.750;-3.396;2023-08-07T03:30:28;16.60;99.90
46758;DHT22;32509;47.750;-3.396;2023-08-07T03:32:55;16.70;99.90
46758;DHT22;32509;47.750;-3.396;2023-08-07T03:35:21;16.70;99.90
46758;DHT22;32509;47.750;-3.396;2023-08-07T03:37:47;16.70;99.90
46758;DHT22;32509;47.750;-3.396;2023-08-07T03:40:12;16.70;99.90
46758;DHT22;32509;47.750;-3.396;2023-08-07T03:42:38;16.70;99.90
46758;DHT22;32509;47.750;-3.396;2023-08-07T03:45:04;16.70;99.90
46758;DHT22;32509;47.750;-3.396;2023-08-07T03:47:30;16.70;99.90
46758;DHT22;32509;47.750;-3.396;2023-08-07T03:49:56;16.70;99.90
46758;DHT22;32509;47.750;-3.396;2023-08-07T03:52:21;16.70;99.90
46758;DHT22;32509;47.750;-3.396;2023-08-07T03:54:47;16.70;99.90
46758;DHT22;32509;47.750;-3.396;2023-08-07T03:57:13;16.70;99.90
46758;DHT22;32509;47.750;-3.396;2023-08-07T03:59:39;16.70;99.90
46758;DHT22;32509;47.750;-3.396;2023-08-07T04:02:04;16.70;99.90
46758;DHT22;32509;47.750;-3.396;2023-08-07T04:04:30;16.70;99.90
46758;DHT22;32509;47.750;-3.396;2023-08-07T04:06:56;16.70;99.90
46758;DHT22;32509;47.750;-3.396;2023-08-07T04:09:22;16.60;99.90
46758;DHT22;32509;47.750;-3.396;2023-08-07T04:11:47;16.70;99.90
46758;DHT22;32509;47.750;-3.396;2023-08-07T04:14:13;16.60;99.90
46758;DHT22;32509;47.750;-3.396;2023-08-07T04:16:39;16.60;99.90
46758;DHT22;32509;47.750;-3.396;2023-08-07T04:19:05;16.60;99.90
46758;DHT22;32509;47.750;-3.396;2023-08-07T04:21:33;16.60;99.90
46758;DHT22;32509;47.750;-3.396;2023-08-07T04:23:59;16.60;99.90
46758;DHT22;32509;47.750;-3.396;2023-08-07T04:26:33;16.60;99.90
46758;DHT22;32509;47.750;-3.396;2023-08-07T04:28:59;16.60;99.90
46758;DHT22;32509;47.750;-3.396;2023-08-07T04:31:25;16.50;99.90
46758;DHT22;32509;47.750;-3.396;2023-08-07T04:33:51;16.50;99.90
46758;DHT22;32509;47.750;-3.396;2023-08-07T04:36:17;16.50;99.90
46758;DHT22;32509;47.750;-3.396;2023-08-07T04:38:42;16.50;99.90
46758;DHT22;32509;47.750;-3.396;2023-08-07T04:41:08;16.50;99.90
46758;DHT22;32509;47.750;-3.396;2023-08-07T04:43:34;16.50;99.90
46758;DHT22;32509;47.750;-3.396;2023-08-07T04:46:00;16.50;99.90
46758;DHT22;32509;47.750;-3.396;2023-08-07T04:48:26;16.50;99.90
46758;DHT22;32509;47.750;-3.396;2023-08-07T04:50:51;16.50;99.90
46758;DHT22;32509;47.750;-3.396;2023-08-07T04:53:17;16.40;99.90
46758;DHT22;32509;47.750;-3.396;2023-08-07T04:55:43;16.40;99.90
46758;DHT22;32509;47.750;-3.396;2023-08-07T04:58:09;16.40;99.90
46758;DHT22;32509;47.750;-3.396;2023-08-07T05:00:36;16.40;99.90
46758;DHT22;32509;47.750;-3.396;2023-08-07T05:03:02;16.40;99.90
46758;DHT22;32509;47.750;-3.396;2023-08-07T05:05:28;16.40;99.90
46758;DHT22;32509;47.750;-3.396;2023-08-07T05:07:55;16.40;99.90
46758;DHT22;32509;47.750;-3.396;2023-08-07T05:10:20;16.40;99.90
46758;DHT22;32509;47.750;-3.396;2023-08-07T05:12:46;16.40;99.90
46758;DHT22;32509;47.750;-3.396;2023-08-07T05:15:12;16.40;99.90
46758;DHT22;32509;47.750;-3.396;2023-08-07T05:17:38;16.40;99.90
46758;DHT22;32509;47.750;-3.396;2023-08-07T05:20:04;16.40;99.90
46758;DHT22;32509;47.750;-3.396;2023-08-07T05:22:31;16.40;99.90
46758;DHT22;32509;47.750;-3.396;2023-08-07T05:24:56;16.40;99.90
46758;DHT22;32509;47.750;-3.396;2023-08-07T05:27:22;16.40;99.90
46758;DHT22;32509;47.750;-3.396;2023-08-07T05:29:48;16.40;99.90
46758;DHT22;32509;47.750;-3.396;2023-08-07T05:32:14;16.50;99.90
46758;DHT22;32509;47.750;-3.396;2023-08-07T05:34:41;16.50;99.90
46758;DHT22;32509;47.750;-3.396;2023-08-07T05:37:07;16.50;99.90
46758;DHT22;32509;47.750;-3.396;2023-08-07T05:39:34;16.50;99.90
46758;DHT22;32509;47.750;-3.396;2023-08-07T05:42:00;16.50;99.90
46758;DHT22;32509;47.750;-3.396;2023-08-07T05:44:26;16.50;99.90
46758;DHT22;32509;47.750;-3.396;2023-08-07T05:46:52;16.50;99.90
46758;DHT22;32509;47.750;-3.396;2023-08-07T05:49:18;16.50;99.90
46758;DHT22;32509;47.750;-3.396;2023-08-07T05:51:44;16.50;99.90
46758;DHT22;32509;47.750;-3.396;2023-08-07T05:54:10;16.50;99.90
46758;DHT22;32509;47.750;-3.396;2023-08-07T05:56:37;16.50;99.90
46758;DHT22;32509;47.750;-3.396;2023-08-07T05:59:03;16.50;99.90
46758;DHT22;32509;47.750;-3.396;2023-08-07T06:01:29;16.50;99.90
46758;DHT22;32509;47.750;-3.396;2023-08-07T06:03:58;16.50;99.90
46758;DHT22;32509;47.750;-3.396;2023-08-07T06:06:25;16.50;99.90
46758;DHT22;32509;47.750;-3.396;2023-08-07T06:08:51;16.50;99.90
46758;DHT22;32509;47.750;-3.396;2023-08-07T06:11:17;16.50;99.90
46758;DHT22;32509;47.750;-3.396;2023-08-07T06:13:43;16.50;99.90
46758;DHT22;32509;47.750;-3.396;2023-08-07T06:16:09;16.60;99.90
46758;DHT22;32509;47.750;-3.396;2023-08-07T06:18:35;16.60;99.90
46758;DHT22;32509;47.750;-3.396;2023-08-07T06:21:01;16.60;99.90
46758;DHT22;32509;47.750;-3.396;2023-08-07T06:23:27;16.60;99.90
46758;DHT22;32509;47.750;-3.396;2023-08-07T06:25:53;16.60;99.90
46758;DHT22;32509;47.750;-3.396;2023-08-07T06:28:18;16.60;99.90
46758;DHT22;32509;47.750;-3.396;2023-08-07T06:30:44;16.60;99.90
46758;DHT22;32509;47.750;-3.396;2023-08-07T06:33:10;16.60;99.90
46758;DHT22;32509;47.750;-3.396;2023-08-07T06:35:39;16.70;99.90
46758;DHT22;32509;47.750;-3.396;2023-08-07T06:38:05;16.70;99.90
46758;DHT22;32509;47.750;-3.396;2023-08-07T06:40:31;16.60;99.90
46758;DHT22;32509;47.750;-3.396;2023-08-07T06:42:57;16.70;99.90
46758;DHT22;32509;47.750;-3.396;2023-08-07T06:45:23;16.60;99.90
46758;DHT22;32509;47.750;-3.396;2023-08-07T06:47:49;16.70;99.90
46758;DHT22;32509;47.750;-3.396;2023-08-07T06:50:14;16.60;99.90
46758;DHT22;32509;47.750;-3.396;2023-08-07T06:52:40;16.70;99.90
46758;DHT22;32509;47.750;-3.396;2023-08-07T06:55:09;16.70;99.90
46758;DHT22;32509;47.750;-3.396;2023-08-07T06:57:35;16.70;99.90
46758;DHT22;32509;47.750;-3.396;2023-08-07T07:00:04;16.70;99.90
46758;DHT22;32509;47.750;-3.396;2023-08-07T07:02:33;16.70;99.90
46758;DHT22;32509;47.750;-3.396;2023-08-07T07:04:59;16.80;99.90
46758;DHT22;32509;47.750;-3.396;2023-08-07T07:07:25;16.80;99.90
46758;DHT22;32509;47.750;-3.396;2023-08-07T07:09:51;16.80;99.90
46758;DHT22;32509;47.750;-3.396;2023-08-07T07:12:17;16.80;99.90
46758;DHT22;32509;47.750;-3.396;2023-08-07T07:14:42;16.80;99.90
46758;DHT22;32509;47.750;-3.396;2023-08-07T07:17:08;16.80;99.90
46758;DHT22;32509;47.750;-3.396;2023-08-07T07:19:34;16.80;99.90
46758;DHT22;32509;47.750;-3.396;2023-08-07T07:22:00;16.80;99.90
46758;DHT22;32509;47.750;-3.396;2023-08-07T07:24:28;16.90;99.90
46758;DHT22;32509;47.750;-3.396;2023-08-07T07:26:54;16.80;99.90
46758;DHT22;32509;47.750;-3.396;2023-08-07T07:29:22;16.80;99.90
46758;DHT22;32509;47.750;-3.396;2023-08-07T07:31:49;16.90;99.90
46758;DHT22;32509;47.750;-3.396;2023-08-07T07:34:15;16.90;99.90
46758;DHT22;32509;47.750;-3.396;2023-08-07T07:36:41;16.90;99.90
46758;DHT22;32509;47.750;-3.396;2023-08-07T07:39:07;16.90;99.90
46758;DHT22;32509;47.750;-3.396;2023-08-07T07:41:33;16.90;99.90
46758;DHT22;32509;47.750;-3.396;2023-08-07T07:44:01;16.90;99.90
46758;DHT22;32509;47.750;-3.396;2023-08-07T07:46:28;16.90;99.90
46758;DHT22;32509;47.750;-3.396;2023-08-07T07:48:54;16.90;99.90
46758;DHT22;32509;47.750;-3.396;2023-08-07T07:51:21;17.00;99.90
46758;DHT22;32509;47.750;-3.396;2023-08-07T07:53:47;16.90;99.90
46758;DHT22;32509;47.750;-3.396;2023-08-07T07:56:13;16.90;99.90
46758;DHT22;32509;47.750;-3.396;2023-08-07T07:58:38;16.90;99.90
46758;DHT22;32509;47.750;-3.396;2023-08-07T08:01:06;17.00;99.90
46758;DHT22;32509;47.750;-3.396;2023-08-07T08:03:35;17.00;99.90
46758;DHT22;32509;47.750;-3.396;2023-08-07T08:06:01;17.00;99.90
46758;DHT22;32509;47.750;-3.396;2023-08-07T08:08:27;17.00;99.90
46758;DHT22;32509;47.750;-3.396;2023-08-07T08:10:53;17.00;99.90
46758;DHT22;32509;47.750;-3.396;2023-08-07T08:13:19;17.10;99.90
46758;DHT22;32509;47.750;-3.396;2023-08-07T08:15:45;17.10;99.90
46758;DHT22;32509;47.750;-3.396;2023-08-07T08:18:12;17.10;99.90
46758;DHT22;32509;47.750;-3.396;2023-08-07T08:20:38;17.10;99.90
46758;DHT22;32509;47.750;-3.396;2023-08-07T08:23:04;17.10;99.90
46758;DHT22;32509;47.750;-3.396;2023-08-07T08:25:33;17.10;99.90
46758;DHT22;32509;47.750;-3.396;2023-08-07T08:27:59;17.10;99.90
46758;DHT22;32509;47.750;-3.396;2023-08-07T08:30:26;17.20;99.90
46758;DHT22;32509;47.750;-3.396;2023-08-07T08:32:52;17.20;99.90
46758;DHT22;32509;47.750;-3.396;2023-08-07T08:35:17;17.20;99.90
46758;DHT22;32509;47.750;-3.396;2023-08-07T08:37:43;17.20;99.90
46758;DHT22;32509;47.750;-3.396;2023-08-07T08:40:09;17.20;99.90
46758;DHT22;32509;47.750;-3.396;2023-08-07T08:42:43;17.30;99.90
46758;DHT22;32509;47.750;-3.396;2023-08-07T08:45:12;17.30;99.90
46758;DHT22;32509;47.750;-3.396;2023-08-07T08:47:39;17.30;99.90
46758;DHT22;32509;47.750;-3.396;2023-08-07T08:50:10;17.40;99.90
46758;DHT22;32509;47.750;-3.396;2023-08-07T08:52:44;17.40;99.90
46758;DHT22;32509;47.750;-3.396;2023-08-07T08:55:12;17.40;99.90
46758;DHT22;32509;47.750;-3.396;2023-08-07T08:57:39;17.40;99.90
46758;DHT22;32509;47.750;-3.396;2023-08-07T09:00:06;17.40;99.90
46758;DHT22;32509;47.750;-3.396;2023-08-07T09:02:47;17.50;99.90
46758;DHT22;32509;47.750;-3.396;2023-08-07T09:05:18;17.50;99.90
46758;DHT22;32509;47.750;-3.396;2023-08-07T09:07:44;17.50;99.90
46758;DHT22;32509;47.750;-3.396;2023-08-07T09:10:15;17.50;99.90
46758;DHT22;32509;47.750;-3.396;2023-08-07T09:13:02;17.50;99.90
46758;DHT22;32509;47.750;-3.396;2023-08-07T09:15:32;17.60;99.90
46758;DHT22;32509;47.750;-3.396;2023-08-07T09:17:58;17.60;99.90
46758;DHT22;32509;47.750;-3.396;2023-08-07T09:20:25;17.60;99.90
46758;DHT22;32509;47.750;-3.396;2023-08-07T09:22:51;17.60;99.90
46758;DHT22;32509;47.750;-3.396;2023-08-07T09:25:37;17.60;99.90
46758;DHT22;32509;47.750;-3.396;2023-08-07T09:28:05;17.70;99.90
46758;DHT22;32509;47.750;-3.396;2023-08-07T09:30:31;17.70;99.90
46758;DHT22;32509;47.750;-3.396;2023-08-07T09:33:06;17.80;99.90
46758;DHT22;32509;47.750;-3.396;2023-08-07T09:35:32;17.80;99.90
46758;DHT22;32509;47.750;-3.396;2023-08-07T09:37:58;17.80;99.90
46758;DHT22;32509;47.750;-3.396;2023-08-07T09:40:25;17.90;99.90
46758;DHT22;32509;47.750;-3.396;2023-08-07T09:42:54;17.90;99.90
46758;DHT22;32509;47.750;-3.396;2023-08-07T12:30:50;18.10;99.90
46758;DHT22;32509;47.750;-3.396;2023-08-07T12:33:19;18.10;99.90
46758;DHT22;32509;47.750;-3.396;2023-08-07T12:35:45;18.20;99.90
46758;DHT22;32509;47.750;-3.396;2023-08-07T12:38:11;18.40;99.90
46758;DHT22;32509;47.750;-3.396;2023-08-07T12:40:40;18.40;99.90
46758;DHT22;32509;47.750;-3.396;2023-08-07T12:43:07;18.50;99.90
46758;DHT22;32509;47.750;-3.396;2023-08-07T12:45:33;18.60;99.90
46758;DHT22;32509;47.750;-3.396;2023-08-07T12:48:00;18.70;99.90
46758;DHT22;32509;47.750;-3.396;2023-08-07T12:50:26;18.70;99.90
46758;DHT22;32509;47.750;-3.396;2023-08-07T12:52:52;18.80;99.90
46758;DHT22;32509;47.750;-3.396;2023-08-07T12:55:17;18.80;99.90
46758;DHT22;32509;47.750;-3.396;2023-08-07T12:57:44;18.90;99.90
46758;DHT22;32509;47.750;-3.396;2023-08-07T13:00:11;18.90;99.90
46758;DHT22;32509;47.750;-3.396;2023-08-07T13:02:44;18.90;99.90
46758;DHT22;32509;47.750;-3.396;2023-08-07T13:05:11;19.00;99.90
46758;DHT22;32509;47.750;-3.396;2023-08-07T13:07:40;19.00;99.90
46758;DHT22;32509;47.750;-3.396;2023-08-07T13:10:07;19.00;99.90
46758;DHT22;32509;47.750;-3.396;2023-08-07T13:12:35;19.00;99.90
46758;DHT22;32509;47.750;-3.396;2023-08-07T13:15:04;19.00;99.90
46758;DHT22;32509;47.750;-3.396;2023-08-07T13:17:31;19.10;99.90
46758;DHT22;32509;47.750;-3.396;2023-08-07T13:19:58;19.10;99.90
46758;DHT22;32509;47.750;-3.396;2023-08-07T13:22:24;19.20;99.90
46758;DHT22;32509;47.750;-3.396;2023-08-07T13:24:50;19.10;99.90
46758;DHT22;32509;47.750;-3.396;2023-08-07T13:27:16;19.10;99.90
46758;DHT22;32509;47.750;-3.396;2023-08-07T13:29:41;19.10;99.90
46758;DHT22;32509;47.750;-3.396;2023-08-07T13:32:07;19.10;99.90
46758;DHT22;32509;47.750;-3.396;2023-08-07T13:34:37;19.20;99.90
46758;DHT22;32509;47.750;-3.396;2023-08-07T13:37:06;19.20;99.90
46758;DHT22;32509;47.750;-3.396;2023-08-07T13:39:33;19.10;99.90
46758;DHT22;32509;47.750;-3.396;2023-08-07T13:41:58;19.10;99.90
46758;DHT22;32509;47.750;-3.396;2023-08-07T13:44:25;19.10;99.90
46758;DHT22;32509;47.750;-3.396;2023-08-07T13:46:51;19.20;99.90
46758;DHT22;32509;47.750;-3.396;2023-08-07T13:49:17;19.20;99.90
46758;DHT22;32509;47.750;-3.396;2023-08-07T13:51:43;19.10;99.90
46758;DHT22;32509;47.750;-3.396;2023-08-07T13:54:09;19.10;99.90
46758;DHT22;32509;47.750;-3.396;2023-08-07T13:56:35;19.10;99.90
46758;DHT22;32509;47.750;-3.396;2023-08-07T13:59:01;19.10;99.90
46758;DHT22;32509;47.750;-3.396;2023-08-07T14:01:27;19.10;99.90
46758;DHT22;32509;47.750;-3.396;2023-08-07T14:03:55;19.10;99.90
46758;DHT22;32509;47.750;-3.396;2023-08-07T14:06:21;19.10;99.90
46758;DHT22;32509;47.750;-3.396;2023-08-07T14:08:47;19.00;99.90
46758;DHT22;32509;47.750;-3.396;2023-08-07T14:11:13;19.00;99.90
46758;DHT22;32509;47.750;-3.396;2023-08-07T14:13:40;19.00;99.90
46758;DHT22;32509;47.750;-3.396;2023-08-07T14:16:07;19.00;99.90
46758;DHT22;32509;47.750;-3.396;2023-08-07T14:18:33;19.00;99.90
46758;DHT22;32509;47.750;-3.396;2023-08-07T14:20:59;19.00;99.90
46758;DHT22;32509;47.750;-3.396;2023-08-07T14:23:25;19.00;99.90
46758;DHT22;32509;47.750;-3.396;2023-08-07T14:25:51;19.00;99.90
46758;DHT22;32509;47.750;-3.396;2023-08-07T14:28:18;19.00;99.90
46758;DHT22;32509;47.750;-3.396;2023-08-07T14:30:44;19.00;99.90
46758;DHT22;32509;47.750;-3.396;2023-08-07T14:33:10;19.00;99.90
46758;DHT22;32509;47.750;-3.396;2023-08-07T14:35:36;19.00;99.90
46758;DHT22;32509;47.750;-3.396;2023-08-07T14:38:02;19.00;99.90
46758;DHT22;32509;47.750;-3.396;2023-08-07T14:40:27;19.00;99.90
46758;DHT22;32509;47.750;-3.396;2023-08-07T14:42:54;19.00;99.90
46758;DHT22;32509;47.750;-3.396;2023-08-07T14:45:22;18.90;99.90
46758;DHT22;32509;47.750;-3.396;2023-08-07T14:47:49;18.90;99.90
46758;DHT22;32509;47.750;-3.396;2023-08-07T14:50:16;19.00;99.90
46758;DHT22;32509;47.750;-3.396;2023-08-07T14:52:44;18.90;99.90
46758;DHT22;32509;47.750;-3.396;2023-08-07T14:55:10;18.90;99.90
46758;DHT22;32509;47.750;-3.396;2023-08-07T14:57:36;18.90;99.90
46758;DHT22;32509;47.750;-3.396;2023-08-07T15:00:02;18.90;99.90
46758;DHT22;32509;47.750;-3.396;2023-08-07T15:02:29;18.90;99.90
46758;DHT22;32509;47.750;-3.396;2023-08-07T15:04:55;18.90;99.90
46758;DHT22;32509;47.750;-3.396;2023-08-07T15:07:21;18.90;99.90
46758;DHT22;32509;47.750;-3.396;2023-08-07T15:09:46;18.90;99.90
46758;DHT22;32509;47.750;-3.396;2023-08-07T15:12:16;18.80;99.90
46758;DHT22;32509;47.750;-3.396;2023-08-07T15:14:44;18.80;99.90
46758;DHT22;32509;47.750;-3.396;2023-08-07T15:17:10;18.80;99.90
46758;DHT22;32509;47.750;-3.396;2023-08-07T15:19:36;18.80;99.90
46758;DHT22;32509;47.750;-3.396;2023-08-07T15:22:02;18.80;99.90
46758;DHT22;32509;47.750;-3.396;2023-08-07T15:24:28;18.80;99.90
46758;DHT22;32509;47.750;-3.396;2023-08-07T15:26:54;18.80;99.90
46758;DHT22;32509;47.750;-3.396;2023-08-07T15:29:20;18.80;99.90
46758;DHT22;32509;47.750;-3.396;2023-08-07T15:31:45;18.80;99.90
46758;DHT22;32509;47.750;-3.396;2023-08-07T15:34:11;18.80;99.90
46758;DHT22;32509;47.750;-3.396;2023-08-07T15:36:37;18.70;99.90
46758;DHT22;32509;47.750;-3.396;2023-08-07T15:39:02;18.70;99.90
46758;DHT22;32509;47.750;-3.396;2023-08-07T15:41:28;18.70;99.90
46758;DHT22;32509;47.750;-3.396;2023-08-07T15:43:54;18.70;99.90
46758;DHT22;32509;47.750;-3.396;2023-08-07T15:46:20;18.70;99.90
46758;DHT22;32509;47.750;-3.396;2023-08-07T15:48:46;18.70;99.90
46758;DHT22;32509;47.750;-3.396;2023-08-07T15:51:11;18.70;99.90
46758;DHT22;32509;47.750;-3.396;2023-08-07T15:53:37;18.70;99.90
46758;DHT22;32509;47.750;-3.396;2023-08-07T15:56:03;18.70;99.90
46758;DHT22;32509;47.750;-3.396;2023-08-07T15:58:29;18.70;99.90
46758;DHT22;32509;47.750;-3.396;2023-08-07T16:00:55;18.70;99.90
46758;DHT22;32509;47.750;-3.396;2023-08-07T16:03:20;18.70;99.90
46758;DHT22;32509;47.750;-3.396;2023-08-07T16:05:48;18.70;99.90
46758;DHT22;32509;47.750;-3.396;2023-08-07T16:08:14;18.60;99.90
46758;DHT22;32509;47.750;-3.396;2023-08-07T16:10:40;18.70;99.90
46758;DHT22;32509;47.750;-3.396;2023-08-07T16:13:06;18.60;99.90
46758;DHT22;32509;47.750;-3.396;2023-08-07T16:15:33;18.60;99.90
46758;DHT22;32509;47.750;-3.396;2023-08-07T16:17:59;18.60;99.90
46758;DHT22;32509;47.750;-3.396;2023-08-07T16:20:27;18.60;99.90
46758;DHT22;32509;47.750;-3.396;2023-08-07T16:22:54;18.60;99.90
46758;DHT22;32509;47.750;-3.396;2023-08-07T16:25:19;18.60;99.90
46758;DHT22;32509;47.750;-3.396;2023-08-07T16:27:45;18.60;99.90
46758;DHT22;32509;47.750;-3.396;2023-08-07T16:30:13;18.60;99.90
46758;DHT22;32509;47.750;-3.396;2023-08-07T16:32:39;18.60;99.90
46758;DHT22;32509;47.750;-3.396;2023-08-07T16:35:08;18.60;99.90
46758;DHT22;32509;47.750;-3.396;2023-08-07T16:37:34;18.60;99.90
46758;DHT22;32509;47.750;-3.396;2023-08-07T16:40:00;18.60;99.90
46758;DHT22;32509;47.750;-3.396;2023-08-07T16:42:26;18.60;99.90
46758;DHT22;32509;47.750;-3.396;2023-08-07T16:44:52;18.50;99.90
46758;DHT22;32509;47.750;-3.396;2023-08-07T16:47:18;18.50;99.90
46758;DHT22;32509;47.750;-3.396;2023-08-07T16:49:44;18.50;99.90
46758;DHT22;32509;47.750;-3.396;2023-08-07T16:52:11;18.50;99.90
46758;DHT22;32509;47.750;-3.396;2023-08-07T16:54:37;18.50;99.90
46758;DHT22;32509;47.750;-3.396;2023-08-07T16:57:03;18.50;99.90
46758;DHT22;32509;47.750;-3.396;2023-08-07T16:59:29;18.50;99.90
46758;DHT22;32509;47.750;-3.396;2023-08-07T17:01:56;18.50;99.90
46758;DHT22;32509;47.750;-3.396;2023-08-07T17:04:22;18.50;99.90
46758;DHT22;32509;47.750;-3.396;2023-08-07T17:06:48;18.50;99.90
46758;DHT22;32509;47.750;-3.396;2023-08-07T17:09:14;18.50;99.90
46758;DHT22;32509;47.750;-3.396;2023-08-07T17:11:44;18.40;99.90
46758;DHT22;32509;47.750;-3.396;2023-08-07T17:14:10;18.50;99.90
46758;DHT22;32509;47.750;-3.396;2023-08-07T17:16:36;18.40;99.90
46758;DHT22;32509;47.750;-3.396;2023-08-07T17:19:02;18.40;99.90
46758;DHT22;32509;47.750;-3.396;2023-08-07T17:21:28;18.40;99.90
46758;DHT22;32509;47.750;-3.396;2023-08-07T17:23:54;18.40;99.90
46758;DHT22;32509;47.750;-3.396;2023-08-07T17:26:20;18.40;99.90
46758;DHT22;32509;47.750;-3.396;2023-08-07T17:28:48;18.30;99.90
46758;DHT22;32509;47.750;-3.396;2023-08-07T17:31:14;18.30;99.90
46758;DHT22;32509;47.750;-3.396;2023-08-07T17:33:40;18.30;99.90
46758;DHT22;32509;47.750;-3.396;2023-08-07T17:36:05;18.30;99.90
46758;DHT22;32509;47.750;-3.396;2023-08-07T17:38:32;18.30;99.90
46758;DHT22;32509;47.750;-3.396;2023-08-07T17:40:58;18.30;99.90
46758;DHT22;32509;47.750;-3.396;2023-08-07T17:43:23;18.30;99.90
46758;DHT22;32509;47.750;-3.396;2023-08-07T17:45:52;18.30;99.90
46758;DHT22;32509;47.750;-3.396;2023-08-07T17:48:20;18.20;99.90
46758;DHT22;32509;47.750;-3.396;2023-08-07T17:50:46;18.20;99.90
46758;DHT22;32509;47.750;-3.396;2023-08-07T17:53:12;18.20;99.90
46758;DHT22;32509;47.750;-3.396;2023-08-07T17:55:38;18.20;99.90
46758;DHT22;32509;47.750;-3.396;2023-08-07T17:58:04;18.20;99.90
46758;DHT22;32509;47.750;-3.396;2023-08-07T18:00:29;18.20;99.90
46758;DHT22;32509;47.750;-3.396;2023-08-07T18:02:55;18.20;99.90
46758;DHT22;32509;47.750;-3.396;2023-08-07T18:05:21;18.20;99.90